createdAt,value
2023-05-19T00:00:20.779Z,57.03
2023-05-19T00:03:01.684Z,57.43
2023-05-19T00:05:47.358Z,57.58
2023-05-19T00:08:30.936Z,58.02
2023-05-19T00:11:10.757Z,58.35
2023-05-19T00:13:52.344Z,58.92
2023-05-19T00:16:39.102Z,59.87
2023-05-19T00:19:18.935Z,59.83
2023-05-19T00:21:58.355Z,59.57
2023-05-19T00:24:37.713Z,58.83
2023-05-19T00:27:17.017Z,59.30
2023-05-19T00:29:56.350Z,59.19
2023-05-19T00:32:40.798Z,59.29
2023-05-19T00:35:20.256Z,59.40
2023-05-19T00:37:59.599Z,58.93
2023-05-19T00:40:41.606Z,58.99
2023-05-19T00:43:20.994Z,58.87
2023-05-19T00:46:00.387Z,59.39
2023-05-19T00:48:45.939Z,59.74
2023-05-19T00:51:26.055Z,59.87
2023-05-19T00:54:05.598Z,59.91
2023-05-19T00:56:45.129Z,60.29
2023-05-19T00:59:24.998Z,60.20
2023-05-19T01:02:05.373Z,60.40
2023-05-19T01:04:52.174Z,60.77
2023-05-19T01:07:31.747Z,61.15
2023-05-19T01:10:11.634Z,61.30
2023-05-19T01:12:51.214Z,62.00
2023-05-19T01:15:34.496Z,62.08
2023-05-19T01:18:22.196Z,62.11
2023-05-19T01:21:28.967Z,61.86
2023-05-19T01:24:24.602Z,62.07
2023-05-19T01:27:41.010Z,62.37
2023-05-19T01:30:36.005Z,62.52
2023-05-19T01:33:19.001Z,62.48
2023-05-19T01:36:00.689Z,62.61
2023-05-19T01:38:42.239Z,62.16
2023-05-19T01:41:23.049Z,62.53
2023-05-19T01:44:04.287Z,62.13
2023-05-19T01:46:49.560Z,61.78
2023-05-19T01:49:28.893Z,62.08
2023-05-19T01:52:08.408Z,62.22
2023-05-19T01:54:47.756Z,62.40
2023-05-19T01:57:39.413Z,62.13
2023-05-19T02:00:30.675Z,61.88
2023-05-19T02:03:34.147Z,61.93
2023-05-19T02:06:29.332Z,62.03
2023-05-19T02:09:12.150Z,62.57
2023-05-19T02:11:59.589Z,63.06
2023-05-19T02:14:45.990Z,63.73
2023-05-19T02:17:28.941Z,64.16
2023-05-19T02:20:15.373Z,64.58
2023-05-19T02:22:54.914Z,64.97
2023-05-19T02:25:34.368Z,65.51
2023-05-19T02:28:13.689Z,66.08
2023-05-19T02:30:53.017Z,66.02
2023-05-19T02:33:32.765Z,65.05
2023-05-19T02:36:17.508Z,65.10
2023-05-19T02:38:57.140Z,64.72
2023-05-19T02:41:36.629Z,64.12
2023-05-19T02:44:16.213Z,64.48
2023-05-19T02:46:55.573Z,64.85
2023-05-19T02:49:37.180Z,64.68
2023-05-19T02:52:21.602Z,64.55
2023-05-19T02:55:00.920Z,64.21
2023-05-19T02:57:43.563Z,63.85
2023-05-19T03:00:24.268Z,63.98
2023-05-19T03:03:03.821Z,63.93
2023-05-19T03:05:43.338Z,63.87
2023-05-19T03:08:27.770Z,64.20
2023-05-19T03:11:07.154Z,64.47
2023-05-19T03:13:46.509Z,64.48
2023-05-19T03:16:25.882Z,64.49
2023-05-19T03:19:05.440Z,64.47
2023-05-19T03:21:44.797Z,64.73
2023-05-19T03:24:29.337Z,64.49
2023-05-19T03:27:08.950Z,64.35
2023-05-19T03:29:48.284Z,64.93
2023-05-19T03:32:27.808Z,64.85
2023-05-19T03:35:07.425Z,65.10
2023-05-19T03:37:46.746Z,65.28
2023-05-19T03:40:31.401Z,65.20
2023-05-19T03:43:11.028Z,65.14
2023-05-19T03:45:50.470Z,64.86
2023-05-19T03:48:29.820Z,65.18
2023-05-19T03:51:10.325Z,65.52
2023-05-19T03:53:49.884Z,65.83
2023-05-19T03:56:34.427Z,66.15
2023-05-19T03:59:14.146Z,66.36
2023-05-19T04:01:53.944Z,66.18
2023-05-19T04:04:34.778Z,66.14
2023-05-19T04:07:14.467Z,66.11
2023-05-19T04:09:53.808Z,65.95
2023-05-19T04:12:38.226Z,65.92
2023-05-19T04:15:18.604Z,66.26
2023-05-19T04:17:58.003Z,66.39
2023-05-19T04:20:37.414Z,66.37
2023-05-19T04:23:16.984Z,66.18
2023-05-19T04:25:58.289Z,66.46
2023-05-19T04:28:43.625Z,66.65
2023-05-19T04:31:23.102Z,66.25
2023-05-19T04:34:02.990Z,65.80
2023-05-19T04:36:42.850Z,65.56
2023-05-19T04:39:22.864Z,65.64
2023-05-19T04:42:03.874Z,65.60
2023-05-19T04:44:50.444Z,65.96
2023-05-19T04:47:31.268Z,66.39
2023-05-19T04:50:11.592Z,66.63
2023-05-19T04:52:52.013Z,66.75
2023-05-19T04:55:31.343Z,66.77
2023-05-19T04:58:10.782Z,66.68
2023-05-19T05:00:56.934Z,66.75
2023-05-19T05:03:36.525Z,67.24
2023-05-19T05:06:16.363Z,67.36
2023-05-19T05:08:55.736Z,67.49
2023-05-19T05:11:35.856Z,67.67
2023-05-19T05:14:15.976Z,67.94
2023-05-19T05:17:01.169Z,67.17
2023-05-19T05:19:41.367Z,67.39
2023-05-19T05:22:21.614Z,67.03
2023-05-19T05:25:01.716Z,67.13
2023-05-19T05:27:41.425Z,67.39
2023-05-19T05:30:21.315Z,67.52
2023-05-19T05:33:06.096Z,67.57
2023-05-19T05:35:46.036Z,67.09
2023-05-19T05:38:25.466Z,67.03
2023-05-19T05:41:04.845Z,66.58
2023-05-19T05:43:44.389Z,66.75
2023-05-19T05:46:24.569Z,66.81
2023-05-19T05:49:09.745Z,66.29
2023-05-19T05:52:01.937Z,66.41
2023-05-19T05:54:45.360Z,65.78
2023-05-19T05:57:25.442Z,65.43
2023-05-19T06:00:07.084Z,65.98
2023-05-19T06:02:47.730Z,65.14
2023-05-19T06:05:32.415Z,65.80
2023-05-19T06:08:12.442Z,66.43
2023-05-19T06:10:51.860Z,65.72
2023-05-19T06:13:31.554Z,65.02
2023-05-19T06:16:11.357Z,63.85
2023-05-19T06:18:50.807Z,60.16
2023-05-19T06:21:35.295Z,57.05
2023-05-19T06:24:14.981Z,56.75
2023-05-19T06:26:54.316Z,56.36
2023-05-19T06:29:33.700Z,56.24
2023-05-19T06:32:13.059Z,55.25
2023-05-19T06:34:55.441Z,55.25
2023-05-19T06:37:39.911Z,54.75
2023-05-19T06:40:20.534Z,54.69
2023-05-19T06:42:59.865Z,54.54
2023-05-19T06:45:40.488Z,54.01
2023-05-19T06:48:19.797Z,53.93
2023-05-19T06:50:59.202Z,53.83
2023-05-19T06:53:43.610Z,53.93
2023-05-19T06:56:24.144Z,53.71
2023-05-19T06:59:03.546Z,53.27
2023-05-19T07:01:42.938Z,53.08
2023-05-19T07:04:22.361Z,52.71
2023-05-19T07:07:01.807Z,53.66
2023-05-19T07:09:46.490Z,53.35
2023-05-19T07:12:27.799Z,52.51
2023-05-19T07:15:07.230Z,52.63
2023-05-19T07:17:46.674Z,52.03
2023-05-19T07:20:26.233Z,51.71
2023-05-19T07:23:06.593Z,51.85
2023-05-19T07:25:51.025Z,52.95
2023-05-19T07:28:30.441Z,53.09
2023-05-19T07:31:09.854Z,51.35
2023-05-19T07:33:49.186Z,52.01
2023-05-19T07:36:28.719Z,52.50
2023-05-19T07:39:08.117Z,51.40
2023-05-19T07:41:56.830Z,50.83
2023-05-19T07:44:37.202Z,50.20
2023-05-19T07:47:16.660Z,50.69
2023-05-19T07:49:56.061Z,50.88
2023-05-19T07:52:35.387Z,51.68
2023-05-19T07:55:14.880Z,50.26
2023-05-19T07:57:59.497Z,49.70
2023-05-19T08:00:42.180Z,48.51
2023-05-19T08:03:24.630Z,47.49
2023-05-19T08:06:06.210Z,47.75
2023-05-19T08:08:45.574Z,47.29
2023-05-19T08:11:28.185Z,47.04
2023-05-19T08:14:12.700Z,47.72
2023-05-19T08:16:56.124Z,46.23
2023-05-19T08:19:35.466Z,46.97
2023-05-19T08:22:14.810Z,46.34
2023-05-19T08:24:54.175Z,46.75
2023-05-19T08:27:33.520Z,46.65
2023-05-19T08:30:19.597Z,46.48
2023-05-19T08:32:59.367Z,45.63
2023-05-19T08:35:39.255Z,46.25
2023-05-19T08:38:18.623Z,45.44
2023-05-19T08:40:59.331Z,45.42
2023-05-19T08:43:38.872Z,45.64
2023-05-19T08:46:25.327Z,45.54
2023-05-19T08:49:12.696Z,45.22
2023-05-19T08:52:07.633Z,44.37
2023-05-19T08:54:57.303Z,44.05
2023-05-19T08:57:36.892Z,44.30
2023-05-19T09:00:18.346Z,43.91
2023-05-19T09:03:17.545Z,41.88
2023-05-19T09:05:58.437Z,43.48
2023-05-19T09:08:38.426Z,43.35
2023-05-19T09:11:18.239Z,41.97
2023-05-19T09:13:57.826Z,41.84
2023-05-19T09:16:37.538Z,42.45
2023-05-19T09:19:22.453Z,42.57
2023-05-19T09:22:06.838Z,41.91
2023-05-19T09:24:46.821Z,41.67
2023-05-19T09:27:29.742Z,42.29
2023-05-19T09:30:15.384Z,40.83
2023-05-19T09:32:54.894Z,40.80
2023-05-19T09:35:39.449Z,41.05
2023-05-19T09:38:25.151Z,40.84
2023-05-19T09:41:05.766Z,41.53
2023-05-19T09:43:45.253Z,41.76
2023-05-19T09:46:27.947Z,42.51
2023-05-19T09:49:07.590Z,41.47
2023-05-19T09:51:54.079Z,40.77
2023-05-19T09:54:34.187Z,40.55
2023-05-19T09:57:13.910Z,38.80
2023-05-19T09:59:53.999Z,39.53
2023-05-19T10:02:33.920Z,38.93
2023-05-19T10:05:15.324Z,38.27
2023-05-19T10:08:01.564Z,37.97
2023-05-19T10:10:41.281Z,38.35
2023-05-19T10:13:21.032Z,38.31
2023-05-19T10:16:01.779Z,38.20
2023-05-19T10:18:42.290Z,38.48
2023-05-19T10:21:22.348Z,38.18
2023-05-19T10:24:06.836Z,38.55
2023-05-19T10:26:49.541Z,38.81
2023-05-19T10:29:34.288Z,38.78
2023-05-19T10:32:18.973Z,37.30
2023-05-19T10:35:35.743Z,37.70
2023-05-19T10:38:28.411Z,37.48
2023-05-19T10:41:20.497Z,38.64
2023-05-19T10:44:09.400Z,39.57
2023-05-19T10:46:48.886Z,37.61
2023-05-19T10:49:28.696Z,37.82
2023-05-19T10:52:08.089Z,37.65
2023-05-19T10:54:48.141Z,38.27
2023-05-19T10:57:34.541Z,38.28
2023-05-19T11:00:35.633Z,38.18
2023-05-19T11:03:24.860Z,37.49
2023-05-19T11:06:25.297Z,37.01
2023-05-19T11:09:07.182Z,37.19
2023-05-19T11:11:54.491Z,37.28
2023-05-19T11:14:41.405Z,37.05
2023-05-19T11:17:23.461Z,36.43
2023-05-19T11:20:05.832Z,36.91
2023-05-19T11:22:45.340Z,36.91
2023-05-19T11:25:50.562Z,36.37
2023-05-19T11:28:31.803Z,36.50
2023-05-19T11:31:18.778Z,36.36
2023-05-19T11:33:58.473Z,37.08
2023-05-19T11:36:39.424Z,36.49
2023-05-19T11:39:20.841Z,36.86
2023-05-19T11:42:03.063Z,37.18
2023-05-19T11:44:42.580Z,37.33
2023-05-19T11:47:27.893Z,37.46
2023-05-19T11:50:07.972Z,37.72
2023-05-19T11:52:52.264Z,36.53
2023-05-19T11:55:32.378Z,36.52
2023-05-19T11:58:12.253Z,36.29
2023-05-19T12:00:52.898Z,36.71
2023-05-19T12:03:37.503Z,37.48
2023-05-19T12:06:18.683Z,37.95
2023-05-19T12:09:00.407Z,37.09
2023-05-19T12:11:39.841Z,36.54
2023-05-19T12:14:20.299Z,36.07
2023-05-19T12:16:59.740Z,36.28
2023-05-19T12:19:44.714Z,36.99
2023-05-19T12:22:25.465Z,37.24
2023-05-19T12:25:06.397Z,36.79
2023-05-19T12:27:46.026Z,37.30
2023-05-19T12:30:25.824Z,37.14
2023-05-19T12:33:05.492Z,37.98
2023-05-19T12:35:51.202Z,37.77
2023-05-19T12:38:30.681Z,37.59
2023-05-19T12:41:10.189Z,38.45
2023-05-19T12:43:49.866Z,37.91
2023-05-19T12:46:29.352Z,38.78
2023-05-19T12:49:08.758Z,38.76
2023-05-19T12:52:00.437Z,37.94
2023-05-19T12:54:41.685Z,38.04
2023-05-19T12:57:24.567Z,38.21
2023-05-19T13:00:08.200Z,37.85
2023-05-19T13:03:03.335Z,37.78
2023-05-19T13:05:45.589Z,36.75
2023-05-19T13:08:31.007Z,37.43
2023-05-19T13:11:10.515Z,36.59
2023-05-19T13:13:49.874Z,36.53
2023-05-19T13:16:30.725Z,37.26
2023-05-19T13:19:23.975Z,38.25
2023-05-19T13:22:05.553Z,36.87
2023-05-19T13:24:51.913Z,36.36
2023-05-19T13:27:31.237Z,36.55
2023-05-19T13:30:10.948Z,36.40
2023-05-19T13:32:50.331Z,36.56
2023-05-19T13:35:31.743Z,36.33
2023-05-19T13:38:11.765Z,36.42
2023-05-19T13:40:56.387Z,37.14
2023-05-19T13:43:35.782Z,37.02
2023-05-19T13:46:15.219Z,37.06
2023-05-19T13:48:54.568Z,36.95
2023-05-19T13:51:33.911Z,36.72
2023-05-19T13:54:13.280Z,36.80
2023-05-19T13:56:59.360Z,36.30
2023-05-19T13:59:49.000Z,35.51
2023-05-19T14:02:37.571Z,35.20
2023-05-19T14:05:17.147Z,35.71
2023-05-19T14:07:56.544Z,35.60
2023-05-19T14:10:36.144Z,34.80
2023-05-19T14:13:32.716Z,34.10
2023-05-19T14:16:15.892Z,33.74
2023-05-19T14:18:55.581Z,33.52
2023-05-19T14:21:36.693Z,33.80
2023-05-19T14:24:16.068Z,33.32
2023-05-19T14:26:55.937Z,33.71
2023-05-19T14:29:40.466Z,33.65
2023-05-19T14:32:20.712Z,33.32
2023-05-19T14:35:00.183Z,33.92
2023-05-19T14:37:39.636Z,34.43
2023-05-19T14:40:20.166Z,35.12
2023-05-19T14:42:59.514Z,34.28
2023-05-19T14:45:45.348Z,34.59
2023-05-19T14:48:25.265Z,34.25
2023-05-19T14:51:04.662Z,32.93
2023-05-19T14:53:44.771Z,33.69
2023-05-19T14:56:24.172Z,33.90
2023-05-19T14:59:05.659Z,33.27
2023-05-19T15:01:50.182Z,33.58
2023-05-19T15:04:29.764Z,33.87
2023-05-19T15:07:10.709Z,33.75
2023-05-19T15:09:50.675Z,33.42
2023-05-19T15:12:30.060Z,33.71
2023-05-19T15:15:09.690Z,33.49
2023-05-19T15:17:54.175Z,33.09
2023-05-19T15:20:33.860Z,33.69
2023-05-19T15:23:13.468Z,33.72
2023-05-19T15:25:54.260Z,33.25
2023-05-19T15:28:33.768Z,33.81
2023-05-19T15:31:13.274Z,34.07
2023-05-19T15:33:57.697Z,34.26
2023-05-19T15:36:37.118Z,34.13
2023-05-19T15:39:16.437Z,34.99
2023-05-19T15:41:57.497Z,35.06
2023-05-19T15:44:37.728Z,35.21
2023-05-19T15:47:17.324Z,35.09
2023-05-19T15:50:01.908Z,35.59
2023-05-19T15:52:43.121Z,36.26
2023-05-19T15:55:22.550Z,36.38
2023-05-19T15:58:01.923Z,36.40
2023-05-19T16:00:41.277Z,36.59
2023-05-19T16:03:20.719Z,36.39
2023-05-19T16:06:05.527Z,35.59
2023-05-19T16:08:44.895Z,35.83
2023-05-19T16:11:24.562Z,36.88
2023-05-19T16:14:03.905Z,36.85
2023-05-19T16:16:43.374Z,37.00
2023-05-19T16:19:22.887Z,37.31
2023-05-19T16:22:07.319Z,36.37
2023-05-19T16:24:46.756Z,37.38
2023-05-19T16:27:26.339Z,37.32
2023-05-19T16:30:06.905Z,36.81
2023-05-19T16:32:46.619Z,36.31
2023-05-19T16:35:26.142Z,36.48
2023-05-19T16:38:10.818Z,36.92
2023-05-19T16:40:50.431Z,37.28
2023-05-19T16:43:29.773Z,37.23
2023-05-19T16:46:11.048Z,37.74
2023-05-19T16:48:50.360Z,37.84
2023-05-19T16:51:29.835Z,37.44
2023-05-19T16:54:14.308Z,37.82
2023-05-19T16:56:53.715Z,38.50
2023-05-19T16:59:33.079Z,38.49
2023-05-19T17:02:12.588Z,38.17
2023-05-19T17:04:51.961Z,37.89
2023-05-19T17:07:31.313Z,37.73
2023-05-19T17:10:16.891Z,37.49
2023-05-19T17:12:56.256Z,37.79
2023-05-19T17:15:35.609Z,37.28
2023-05-19T17:18:16.201Z,37.62
2023-05-19T17:20:55.768Z,37.73
2023-05-19T17:23:35.101Z,38.12
2023-05-19T17:26:19.620Z,37.68
2023-05-19T17:28:59.110Z,38.21
2023-05-19T17:31:38.501Z,38.31
2023-05-19T17:34:18.056Z,38.45
2023-05-19T17:36:57.426Z,38.44
2023-05-19T17:39:37.095Z,39.26
2023-05-19T17:42:21.506Z,39.02
2023-05-19T17:45:00.830Z,38.03
2023-05-19T17:47:40.317Z,38.24
2023-05-19T17:50:19.620Z,38.72
2023-05-19T17:52:59.739Z,38.16
2023-05-19T17:55:39.924Z,38.87
2023-05-19T17:58:25.174Z,39.38
2023-05-19T18:01:05.038Z,39.52
2023-05-19T18:03:50.381Z,39.33
2023-05-19T18:06:31.489Z,39.23
2023-05-19T18:09:11.528Z,39.46
2023-05-19T18:11:50.854Z,38.90
2023-05-19T18:14:35.260Z,39.53
2023-05-19T18:17:15.642Z,39.51
2023-05-19T18:19:55.775Z,39.83
2023-05-19T18:22:35.171Z,39.85
2023-05-19T18:25:15.573Z,39.99
2023-05-19T18:27:57.005Z,40.23
2023-05-19T18:30:42.235Z,39.67
2023-05-19T18:33:24.174Z,39.74
2023-05-19T18:36:05.702Z,39.96
2023-05-19T18:38:45.021Z,40.47
2023-05-19T18:41:24.386Z,40.20
2023-05-19T18:44:03.745Z,40.06
2023-05-19T18:46:48.181Z,40.43
2023-05-19T18:49:27.551Z,41.20
2023-05-19T18:52:07.112Z,41.35
2023-05-19T18:54:48.279Z,41.69
2023-05-19T18:57:27.620Z,41.57
2023-05-19T19:00:07.254Z,41.92
2023-05-19T19:02:51.785Z,42.03
2023-05-19T19:05:31.429Z,42.26
2023-05-19T19:08:11.570Z,42.19
2023-05-19T19:10:51.749Z,42.67
2023-05-19T19:13:32.488Z,42.97
2023-05-19T19:16:12.447Z,42.81
2023-05-19T19:18:56.982Z,43.28
2023-05-19T19:21:36.918Z,43.81
2023-05-19T19:24:16.527Z,43.99
2023-05-19T19:26:55.890Z,43.75
2023-05-19T19:29:35.276Z,43.67
2023-05-19T19:32:14.951Z,43.29
2023-05-19T19:34:59.406Z,44.49
2023-05-19T19:37:38.776Z,44.71
2023-05-19T19:40:19.394Z,45.55
2023-05-19T19:42:58.887Z,45.36
2023-05-19T19:45:40.376Z,45.60
2023-05-19T19:48:19.733Z,46.21
2023-05-19T19:51:06.061Z,46.25
2023-05-19T19:53:45.468Z,45.82
2023-05-19T19:56:25.994Z,46.23
2023-05-19T19:59:05.359Z,46.45
2023-05-19T20:01:44.773Z,46.17
2023-05-19T20:04:24.277Z,46.31
2023-05-19T20:07:09.049Z,45.09
2023-05-19T20:09:49.073Z,44.45
2023-05-19T20:12:31.269Z,44.69
2023-05-19T20:15:10.818Z,44.79
2023-05-19T20:17:50.242Z,44.80
2023-05-19T20:20:29.578Z,45.13
2023-05-19T20:23:14.553Z,45.12
2023-05-19T20:26:06.705Z,45.28
2023-05-19T20:28:51.005Z,44.91
2023-05-19T20:31:30.371Z,45.35
2023-05-19T20:34:09.764Z,45.53
2023-05-19T20:36:49.139Z,45.78
2023-05-19T20:39:33.701Z,45.96
2023-05-19T20:42:14.143Z,45.77
2023-05-19T20:44:53.521Z,45.92
2023-05-19T20:47:33.006Z,45.58
2023-05-19T20:50:13.529Z,46.00
2023-05-19T20:52:54.652Z,46.00
2023-05-19T20:55:39.129Z,46.23
2023-05-19T20:58:18.681Z,46.54
2023-05-19T21:00:58.761Z,46.80
2023-05-19T21:03:38.302Z,46.66
2023-05-19T21:06:17.679Z,46.75
2023-05-19T21:08:57.184Z,46.68
2023-05-19T21:11:41.976Z,47.14
2023-05-19T21:14:21.648Z,47.25
2023-05-19T21:17:01.556Z,47.25
2023-05-19T21:19:41.167Z,47.44
2023-05-19T21:22:20.613Z,47.22
2023-05-19T21:25:00.086Z,47.48
2023-05-19T21:27:47.175Z,47.60
2023-05-19T21:30:26.602Z,48.00
2023-05-19T21:33:05.990Z,47.83
2023-05-19T21:35:45.349Z,47.83
2023-05-19T21:38:24.692Z,47.66
2023-05-19T21:41:04.127Z,48.33
2023-05-19T21:43:48.792Z,48.38
2023-05-19T21:46:29.340Z,48.56
2023-05-19T21:49:08.785Z,49.09
2023-05-19T21:51:48.148Z,48.77
2023-05-19T21:54:27.461Z,48.94
2023-05-19T21:57:07.048Z,48.90
2023-05-19T21:59:51.518Z,48.81
2023-05-19T22:02:30.985Z,49.27
2023-05-19T22:05:11.269Z,49.43
2023-05-19T22:07:50.831Z,49.07
2023-05-19T22:10:30.501Z,49.46
2023-05-19T22:13:09.834Z,49.33
2023-05-19T22:15:54.476Z,49.54
2023-05-19T22:18:33.870Z,49.53
2023-05-19T22:21:13.379Z,49.81
2023-05-19T22:23:52.773Z,49.76
2023-05-19T22:26:32.414Z,49.97
2023-05-19T22:29:16.186Z,50.08
2023-05-19T22:32:00.611Z,50.14
2023-05-19T22:34:40.168Z,50.13
2023-05-19T22:37:19.716Z,50.38
2023-05-19T22:39:59.059Z,50.63
2023-05-19T22:42:38.427Z,50.54
2023-05-19T22:45:18.478Z,50.61
2023-05-19T22:48:02.916Z,50.67
2023-05-19T22:50:42.316Z,50.94
2023-05-19T22:53:21.669Z,51.03
2023-05-19T22:56:01.038Z,50.84
2023-05-19T22:58:40.354Z,51.10
2023-05-19T23:01:19.937Z,51.23
2023-05-19T23:04:04.423Z,51.27
2023-05-19T23:06:43.750Z,51.07
2023-05-19T23:09:23.286Z,51.17
2023-05-19T23:12:02.662Z,51.06
2023-05-19T23:14:42.091Z,51.22
2023-05-19T23:17:21.423Z,51.11
2023-05-19T23:20:07.026Z,51.15
2023-05-19T23:22:46.466Z,51.53
2023-05-19T23:25:25.929Z,51.87
2023-05-19T23:28:05.366Z,51.71
2023-05-19T23:30:44.909Z,51.97
2023-05-19T23:33:24.267Z,52.27
2023-05-19T23:36:13.864Z,52.16
2023-05-19T23:38:53.225Z,52.35
2023-05-19T23:41:32.670Z,52.35
2023-05-19T23:44:12.593Z,52.51
2023-05-19T23:46:51.979Z,53.00
2023-05-19T23:49:31.347Z,53.37
2023-05-19T23:52:15.785Z,53.58
2023-05-19T23:54:56.023Z,53.98
2023-05-19T23:57:35.633Z,54.07
